createdAt,value
2024-01-18T00:02:10.996Z,24.44
2024-01-18T00:04:42.943Z,24.40
2024-01-18T00:07:14.170Z,24.34
2024-01-18T00:09:44.269Z,24.35
2024-01-18T00:12:14.654Z,24.32
2024-01-18T00:14:44.785Z,24.30
2024-01-18T00:17:15.115Z,24.30
2024-01-18T00:19:45.343Z,24.29
2024-01-18T00:22:16.384Z,24.30
2024-01-18T00:24:47.400Z,24.28
2024-01-18T00:27:17.757Z,24.27
2024-01-18T00:29:47.835Z,24.23
2024-01-18T00:32:18.175Z,24.20
2024-01-18T00:34:48.151Z,24.19
2024-01-18T00:37:18.500Z,24.17
2024-01-18T00:39:49.145Z,24.15
2024-01-18T00:42:19.122Z,24.16
2024-01-18T00:44:51.834Z,24.13
2024-01-18T00:47:21.313Z,24.16
2024-01-18T00:49:51.719Z,24.16
2024-01-18T00:52:21.605Z,24.16
2024-01-18T00:54:52.220Z,24.13
2024-01-18T00:57:23.161Z,24.02
2024-01-18T00:59:54.508Z,23.98
2024-01-18T01:02:25.351Z,23.97
2024-01-18T01:04:55.719Z,23.94
2024-01-18T01:07:27.268Z,23.87
2024-01-18T01:09:58.029Z,23.90
2024-01-18T01:12:27.959Z,23.89
2024-01-18T01:14:58.459Z,23.92
2024-01-18T01:17:28.343Z,23.95
2024-01-18T01:20:00.059Z,24.03
2024-01-18T01:22:30.529Z,24.14
2024-01-18T01:25:00.625Z,24.21
2024-01-18T01:27:31.838Z,24.25
2024-01-18T01:30:02.010Z,24.26
2024-01-18T01:32:32.362Z,24.27
2024-01-18T01:35:02.389Z,24.25
2024-01-18T01:37:32.708Z,24.20
2024-01-18T01:40:04.051Z,24.07
2024-01-18T01:42:34.620Z,23.88
2024-01-18T01:45:05.248Z,23.71
2024-01-18T01:47:35.760Z,23.61
2024-01-18T01:50:06.900Z,23.55
2024-01-18T01:52:39.392Z,23.57
2024-01-18T01:55:14.078Z,23.56
2024-01-18T01:57:50.158Z,23.58
2024-01-18T02:00:20.867Z,23.64
2024-01-18T02:02:52.301Z,23.67
2024-01-18T02:05:25.382Z,23.65
2024-01-18T02:07:57.725Z,23.65
2024-01-18T02:10:27.861Z,23.62
2024-01-18T02:13:00.648Z,23.60
2024-01-18T02:15:30.340Z,23.57
2024-01-18T02:18:00.429Z,23.53
2024-01-18T02:20:31.460Z,23.49
2024-01-18T02:23:03.904Z,23.50
2024-01-18T02:25:35.372Z,23.50
2024-01-18T02:28:05.427Z,23.52
2024-01-18T02:30:35.309Z,23.53
2024-01-18T02:33:05.923Z,23.54
2024-01-18T02:35:36.619Z,23.58
2024-01-18T02:38:07.553Z,23.59
2024-01-18T02:40:40.699Z,23.59
2024-01-18T02:43:11.168Z,23.59
2024-01-18T02:45:41.286Z,23.58
2024-01-18T02:48:12.330Z,23.58
2024-01-18T02:50:45.271Z,23.61
2024-01-18T02:53:15.588Z,23.59
2024-01-18T02:55:45.627Z,23.58
2024-01-18T02:58:16.493Z,23.56
2024-01-18T03:00:46.941Z,23.52
2024-01-18T03:03:17.692Z,23.49
2024-01-18T03:05:48.027Z,23.48
2024-01-18T03:08:18.666Z,23.46
2024-01-18T03:10:48.784Z,23.46
2024-01-18T03:13:19.110Z,23.45
2024-01-18T03:15:49.205Z,23.51
2024-01-18T03:18:20.186Z,23.53
2024-01-18T03:20:50.335Z,23.50
2024-01-18T03:23:21.098Z,23.52
2024-01-18T03:25:54.133Z,23.56
2024-01-18T03:28:24.397Z,23.60
2024-01-18T03:30:54.368Z,23.64
2024-01-18T03:33:24.772Z,23.65
2024-01-18T03:35:54.854Z,23.62
2024-01-18T03:38:25.183Z,23.65
2024-01-18T03:40:55.943Z,23.66
2024-01-18T03:43:26.220Z,23.61
2024-01-18T03:45:56.175Z,23.59
2024-01-18T03:48:26.496Z,23.54
2024-01-18T03:50:59.250Z,23.52
2024-01-18T03:53:29.576Z,23.42
2024-01-18T03:55:59.586Z,23.44
2024-01-18T03:58:29.810Z,23.47
2024-01-18T04:01:00.173Z,23.31
2024-01-18T04:03:30.572Z,23.30
2024-01-18T04:06:00.817Z,23.27
2024-01-18T04:08:31.232Z,23.23
2024-01-18T04:11:01.571Z,23.18
2024-01-18T04:13:32.039Z,23.25
2024-01-18T04:16:02.263Z,23.30
2024-01-18T04:18:32.765Z,23.26
2024-01-18T04:21:02.912Z,23.31
2024-01-18T04:23:33.542Z,23.36
2024-01-18T04:26:03.901Z,23.33
2024-01-18T04:28:34.233Z,23.26
2024-01-18T04:31:04.248Z,23.21
2024-01-18T04:33:34.547Z,23.19
2024-01-18T04:36:05.332Z,23.19
2024-01-18T04:38:35.632Z,23.20
2024-01-18T04:41:05.750Z,23.16
2024-01-18T04:43:36.322Z,23.13
2024-01-18T04:46:07.012Z,23.13
2024-01-18T04:48:37.503Z,23.12
2024-01-18T04:51:07.650Z,23.05
2024-01-18T04:53:38.024Z,23.01
2024-01-18T04:56:08.704Z,23.02
2024-01-18T04:58:41.038Z,23.03
2024-01-18T05:01:14.664Z,23.02
2024-01-18T05:03:44.962Z,23.08
2024-01-18T05:06:15.200Z,23.02
2024-01-18T05:08:46.255Z,22.99
2024-01-18T05:11:16.275Z,22.97
2024-01-18T05:13:47.139Z,22.97
2024-01-18T05:16:17.182Z,22.97
2024-01-18T05:18:48.347Z,22.99
2024-01-18T05:21:18.476Z,23.02
2024-01-18T05:23:51.714Z,23.04
2024-01-18T05:26:21.847Z,23.05
2024-01-18T05:28:52.073Z,23.07
2024-01-18T05:31:22.098Z,23.10
2024-01-18T05:33:52.498Z,23.10
2024-01-18T05:36:22.637Z,23.09
2024-01-18T05:38:52.964Z,23.13
2024-01-18T05:41:22.775Z,23.14
2024-01-18T05:43:53.047Z,23.16
2024-01-18T05:46:26.086Z,23.19
2024-01-18T05:48:56.412Z,23.21
2024-01-18T05:51:26.658Z,23.25
2024-01-18T05:53:57.619Z,23.26
2024-01-18T05:56:28.579Z,23.27
2024-01-18T05:58:59.032Z,23.24
2024-01-18T06:01:29.868Z,23.19
2024-01-18T06:04:00.363Z,23.17
2024-01-18T06:06:30.780Z,23.18
2024-01-18T06:09:01.253Z,23.19
2024-01-18T06:11:31.363Z,23.22
2024-01-18T06:14:01.676Z,23.23
2024-01-18T06:16:31.953Z,23.25
2024-01-18T06:19:02.275Z,23.28
2024-01-18T06:21:33.247Z,23.32
2024-01-18T06:24:04.824Z,23.34
2024-01-18T06:26:36.025Z,23.31
2024-01-18T06:29:06.559Z,23.31
2024-01-18T06:31:36.612Z,23.33
2024-01-18T06:34:07.407Z,23.32
2024-01-18T06:36:37.530Z,23.34
2024-01-18T06:39:07.960Z,23.33
2024-01-18T06:41:38.082Z,23.33
2024-01-18T06:44:11.058Z,23.33
2024-01-18T06:46:41.482Z,23.32
2024-01-18T06:49:12.456Z,23.33
2024-01-18T06:51:42.934Z,23.33
2024-01-18T06:54:13.330Z,23.35
2024-01-18T06:56:47.443Z,23.34
2024-01-18T06:59:18.967Z,23.33
2024-01-18T07:01:48.987Z,23.34
2024-01-18T07:04:19.322Z,23.33
2024-01-18T07:06:49.660Z,23.33
2024-01-18T07:09:20.042Z,23.33
2024-01-18T07:11:50.476Z,23.35
2024-01-18T07:14:21.072Z,23.35
2024-01-18T07:16:51.106Z,23.35
2024-01-18T07:19:21.573Z,23.38
2024-01-18T07:21:51.761Z,23.39
2024-01-18T07:24:25.559Z,23.38
2024-01-18T07:26:55.793Z,23.43
2024-01-18T07:29:26.245Z,23.40
2024-01-18T07:31:56.259Z,23.42
2024-01-18T07:34:26.091Z,23.39
2024-01-18T07:36:57.969Z,23.37
2024-01-18T07:39:28.020Z,23.37
2024-01-18T07:41:58.484Z,23.36
2024-01-18T07:44:28.374Z,23.36
2024-01-18T07:46:58.215Z,23.38
2024-01-18T07:49:28.478Z,23.41
2024-01-18T07:51:58.836Z,23.38
2024-01-18T07:54:30.177Z,23.36
2024-01-18T07:57:00.232Z,23.33
2024-01-18T07:59:30.469Z,23.30
2024-01-18T08:02:01.919Z,23.37
2024-01-18T08:04:32.324Z,23.36
2024-01-18T08:07:02.410Z,23.42
2024-01-18T08:09:33.461Z,23.46
2024-01-18T08:12:03.561Z,23.49
2024-01-18T08:14:33.782Z,23.47
2024-01-18T08:17:04.671Z,23.49
2024-01-18T08:19:35.109Z,23.46
2024-01-18T08:22:05.299Z,23.48
2024-01-18T08:24:35.967Z,23.54
2024-01-18T08:27:06.515Z,23.60
2024-01-18T08:29:37.824Z,23.67
2024-01-18T08:32:08.727Z,23.66
2024-01-18T08:34:40.316Z,23.71
2024-01-18T08:37:11.655Z,23.78
2024-01-18T08:39:41.989Z,23.81
2024-01-18T08:42:12.118Z,23.81
2024-01-18T08:44:48.208Z,23.79
2024-01-18T08:47:20.673Z,23.84
2024-01-18T08:49:51.733Z,23.85
2024-01-18T08:52:22.202Z,23.89
2024-01-18T08:54:53.740Z,23.86
2024-01-18T08:57:23.922Z,23.81
2024-01-18T08:59:54.321Z,23.85
2024-01-18T09:02:24.620Z,23.87
2024-01-18T09:04:55.017Z,23.83
2024-01-18T09:07:26.708Z,23.84
2024-01-18T09:09:57.085Z,23.78
2024-01-18T09:12:28.747Z,23.68
2024-01-18T09:14:59.337Z,23.64
2024-01-18T09:17:29.446Z,23.64
2024-01-18T09:19:59.830Z,23.65
2024-01-18T09:22:30.139Z,23.69
2024-01-18T09:25:01.646Z,23.77
2024-01-18T09:27:35.502Z,23.82
2024-01-18T09:30:06.489Z,23.90
2024-01-18T09:32:36.653Z,24.07
2024-01-18T09:35:07.977Z,24.18
2024-01-18T09:37:38.891Z,24.21
2024-01-18T09:40:13.932Z,24.30
2024-01-18T09:42:49.133Z,24.37
2024-01-18T09:45:24.735Z,24.53
2024-01-18T09:47:56.072Z,24.71
2024-01-18T09:50:26.896Z,24.89
2024-01-18T09:52:57.417Z,24.99
2024-01-18T09:55:28.205Z,25.06
2024-01-18T09:58:01.085Z,25.10
2024-01-18T10:00:34.142Z,25.22
2024-01-18T10:03:04.798Z,25.37
2024-01-18T10:05:34.745Z,25.52
2024-01-18T10:08:06.148Z,25.63
2024-01-18T10:10:36.356Z,25.73
2024-01-18T10:13:07.038Z,25.83
2024-01-18T10:15:37.901Z,25.90
2024-01-18T10:18:09.255Z,25.99
2024-01-18T10:20:39.613Z,26.10
2024-01-18T10:23:13.040Z,26.27
2024-01-18T10:25:46.841Z,26.46
2024-01-18T10:28:17.755Z,26.49
2024-01-18T10:30:54.152Z,26.42
2024-01-18T10:33:25.081Z,26.47
2024-01-18T10:35:55.033Z,26.41
2024-01-18T10:38:32.523Z,26.31
2024-01-18T10:41:10.218Z,26.16
2024-01-18T10:43:41.434Z,26.21
2024-01-18T10:46:12.879Z,26.29
2024-01-18T10:48:50.075Z,26.33
2024-01-18T10:51:20.094Z,26.25
2024-01-18T10:53:54.381Z,26.19
2024-01-18T10:56:26.081Z,26.20
2024-01-18T10:58:56.893Z,26.24
2024-01-18T11:01:27.478Z,26.16
2024-01-18T11:03:58.274Z,26.17
2024-01-18T11:06:30.683Z,26.21
2024-01-18T11:09:01.719Z,26.34
2024-01-18T11:11:33.457Z,26.31
2024-01-18T11:14:03.452Z,26.48
2024-01-18T11:16:33.960Z,26.42
2024-01-18T11:19:04.364Z,26.48
2024-01-18T11:21:46.881Z,26.61
2024-01-18T11:24:18.002Z,26.79
2024-01-18T11:26:47.890Z,26.97
2024-01-18T11:29:22.038Z,27.20
2024-01-18T11:31:53.553Z,27.19
2024-01-18T11:34:39.702Z,27.27
2024-01-18T11:37:20.922Z,27.22
2024-01-18T11:39:54.700Z,27.48
2024-01-18T11:42:35.642Z,27.66
2024-01-18T11:45:22.142Z,27.68
2024-01-18T11:47:53.974Z,27.65
2024-01-18T11:50:24.158Z,27.78
2024-01-18T11:52:54.506Z,27.82
2024-01-18T11:55:26.714Z,27.91
2024-01-18T11:57:59.704Z,27.98
2024-01-18T12:00:31.245Z,28.05
2024-01-18T12:03:05.600Z,27.98
2024-01-18T12:05:38.898Z,27.84
2024-01-18T12:08:10.649Z,27.64
2024-01-18T12:10:41.015Z,27.60
2024-01-18T12:13:11.466Z,27.46
2024-01-18T12:15:43.547Z,27.22
2024-01-18T12:18:14.075Z,27.11
2024-01-18T12:20:45.767Z,27.18
2024-01-18T12:23:18.111Z,27.41
2024-01-18T12:25:48.331Z,27.63
2024-01-18T12:28:19.097Z,27.82
2024-01-18T12:30:50.810Z,28.09
2024-01-18T12:33:21.871Z,28.38
2024-01-18T12:35:52.523Z,28.51
2024-01-18T12:38:22.803Z,28.66
2024-01-18T12:40:53.079Z,28.75
2024-01-18T12:43:23.685Z,28.94
2024-01-18T12:46:00.046Z,29.24
2024-01-18T12:48:31.414Z,29.56
2024-01-18T12:51:01.723Z,29.78
2024-01-18T12:53:32.084Z,30.03
2024-01-18T12:56:02.921Z,30.03
2024-01-18T12:58:33.744Z,30.19
2024-01-18T13:01:04.057Z,30.31
2024-01-18T13:03:34.620Z,30.29
2024-01-18T13:06:05.157Z,30.12
2024-01-18T13:08:40.162Z,30.49
2024-01-18T13:11:10.486Z,30.70
2024-01-18T13:13:40.944Z,31.48
2024-01-18T13:16:10.952Z,32.22
2024-01-18T13:18:41.423Z,32.83
2024-01-18T13:21:11.544Z,33.08
2024-01-18T13:23:41.909Z,33.15
2024-01-18T13:26:12.056Z,33.44
2024-01-18T13:28:44.493Z,33.56
2024-01-18T13:31:15.404Z,33.33
2024-01-18T13:33:45.798Z,32.83
2024-01-18T13:36:16.006Z,32.33
2024-01-18T13:38:46.291Z,32.22
2024-01-18T13:41:16.196Z,31.89
2024-01-18T13:43:48.191Z,31.64
2024-01-18T13:46:18.376Z,31.96
2024-01-18T13:48:48.732Z,32.01
2024-01-18T13:51:18.912Z,31.76
2024-01-18T13:53:53.553Z,31.69
2024-01-18T13:56:24.903Z,31.62
2024-01-18T13:58:56.255Z,31.99
2024-01-18T14:01:26.360Z,32.21
2024-01-18T14:03:56.730Z,32.11
2024-01-18T14:06:27.931Z,31.73
2024-01-18T14:08:59.779Z,31.60
2024-01-18T14:11:30.787Z,31.98
2024-01-18T14:14:01.147Z,31.76
2024-01-18T14:16:31.716Z,32.13
2024-01-18T14:19:02.174Z,32.51
2024-01-18T14:21:32.270Z,32.76
2024-01-18T14:24:02.597Z,33.30
2024-01-18T14:26:32.778Z,33.54
2024-01-18T14:29:04.079Z,33.21
2024-01-18T14:31:34.260Z,33.61
2024-01-18T14:34:04.930Z,33.97
2024-01-18T14:36:35.051Z,34.25
2024-01-18T14:39:06.405Z,34.18
2024-01-18T14:41:36.383Z,33.92
2024-01-18T14:44:06.975Z,33.85
2024-01-18T14:46:38.828Z,34.22
2024-01-18T14:49:09.394Z,34.17
2024-01-18T14:51:39.496Z,35.07
2024-01-18T14:54:09.802Z,35.61
2024-01-18T14:56:39.782Z,35.88
2024-01-18T14:59:10.026Z,35.58
2024-01-18T15:01:41.952Z,36.18
2024-01-18T15:04:17.975Z,36.35
2024-01-18T15:06:47.983Z,36.29
2024-01-18T15:09:18.582Z,36.19
2024-01-18T15:11:48.561Z,36.08
2024-01-18T15:14:19.248Z,35.94
2024-01-18T15:16:49.247Z,35.91
2024-01-18T15:19:19.978Z,35.96
2024-01-18T15:21:53.521Z,36.69
2024-01-18T15:24:23.897Z,37.06
2024-01-18T15:26:53.996Z,37.05
2024-01-18T15:29:25.234Z,37.02
2024-01-18T15:31:58.696Z,36.39
2024-01-18T15:34:32.097Z,35.69
2024-01-18T15:37:04.061Z,35.66
2024-01-18T15:39:34.490Z,35.66
2024-01-18T15:42:05.637Z,35.11
2024-01-18T15:44:35.919Z,34.90
2024-01-18T15:47:07.339Z,35.16
2024-01-18T15:49:37.628Z,35.42
2024-01-18T15:52:08.088Z,35.78
2024-01-18T15:54:38.845Z,36.48
2024-01-18T15:57:09.635Z,36.91
2024-01-18T15:59:40.105Z,37.57
2024-01-18T16:02:10.148Z,38.49
2024-01-18T16:04:43.520Z,38.65
2024-01-18T16:07:13.625Z,38.21
2024-01-18T16:09:43.985Z,37.27
2024-01-18T16:12:14.045Z,37.72
2024-01-18T16:14:48.574Z,38.35
2024-01-18T16:17:19.090Z,38.33
2024-01-18T16:19:49.387Z,38.52
2024-01-18T16:22:20.162Z,37.57
2024-01-18T16:24:50.763Z,37.54
2024-01-18T16:27:20.811Z,37.33
2024-01-18T16:30:01.365Z,36.88
2024-01-18T16:32:37.251Z,37.07
2024-01-18T16:35:07.614Z,36.75
2024-01-18T16:37:38.184Z,36.60
2024-01-18T16:40:09.227Z,36.26
2024-01-18T16:42:39.664Z,36.33
2024-01-18T16:45:12.629Z,36.52
2024-01-18T16:47:43.151Z,36.68
2024-01-18T16:50:13.012Z,36.68
2024-01-18T16:52:42.900Z,36.92
2024-01-18T16:55:13.307Z,37.37
2024-01-18T16:57:44.777Z,37.50
2024-01-18T17:00:16.271Z,37.61
2024-01-18T17:02:46.681Z,37.77
2024-01-18T17:05:17.259Z,37.37
2024-01-18T17:07:47.336Z,37.73
2024-01-18T17:10:19.297Z,37.52
2024-01-18T17:12:48.842Z,37.71
2024-01-18T17:15:18.612Z,37.49
2024-01-18T17:17:49.256Z,36.99
2024-01-18T17:20:19.552Z,36.20
2024-01-18T17:22:50.085Z,36.43
2024-01-18T17:25:19.784Z,36.32
2024-01-18T17:27:50.245Z,36.11
2024-01-18T17:30:22.132Z,35.50
2024-01-18T17:32:52.908Z,35.61
2024-01-18T17:35:22.798Z,35.12
2024-01-18T17:37:53.248Z,35.19
2024-01-18T17:40:24.077Z,34.93
2024-01-18T17:42:54.783Z,35.45
2024-01-18T17:45:24.669Z,35.53
2024-01-18T17:47:55.326Z,35.49
2024-01-18T17:50:25.427Z,35.44
2024-01-18T17:52:55.897Z,35.24
2024-01-18T17:55:25.747Z,35.37
2024-01-18T17:57:56.205Z,35.24
2024-01-18T18:00:30.181Z,34.97
2024-01-18T18:03:07.112Z,35.09
2024-01-18T18:05:38.176Z,34.46
2024-01-18T18:08:09.015Z,34.74
2024-01-18T18:10:39.335Z,34.74
2024-01-18T18:13:10.447Z,34.45
2024-01-18T18:15:45.133Z,34.19
2024-01-18T18:18:21.099Z,34.50
2024-01-18T18:20:53.873Z,34.37
2024-01-18T18:23:24.268Z,34.24
2024-01-18T18:25:53.964Z,33.91
2024-01-18T18:28:24.426Z,33.37
2024-01-18T18:30:58.357Z,32.91
2024-01-18T18:33:30.368Z,32.58
2024-01-18T18:36:00.331Z,32.33
2024-01-18T18:38:33.291Z,32.12
2024-01-18T18:41:05.307Z,32.07
2024-01-18T18:43:35.711Z,31.94
2024-01-18T18:46:06.783Z,31.72
2024-01-18T18:48:37.982Z,31.72
2024-01-18T18:51:09.875Z,31.78
2024-01-18T18:53:39.950Z,31.62
2024-01-18T18:56:11.250Z,31.57
2024-01-18T18:58:41.248Z,31.68
2024-01-18T19:01:10.932Z,31.82
2024-01-18T19:03:42.515Z,31.99
2024-01-18T19:06:13.158Z,32.03
2024-01-18T19:08:44.131Z,32.02
2024-01-18T19:11:14.052Z,32.05
2024-01-18T19:13:44.553Z,32.09
2024-01-18T19:16:14.442Z,32.01
2024-01-18T19:18:46.311Z,32.13
2024-01-18T19:21:16.632Z,32.30
2024-01-18T19:23:46.768Z,32.56
2024-01-18T19:26:17.150Z,32.63
2024-01-18T19:28:47.296Z,32.21
2024-01-18T19:31:17.587Z,31.98
2024-01-18T19:33:48.384Z,31.96
2024-01-18T19:36:19.212Z,31.90
2024-01-18T19:38:49.275Z,31.95
2024-01-18T19:41:19.582Z,31.94
2024-01-18T19:43:49.753Z,32.05
2024-01-18T19:46:19.968Z,31.98
2024-01-18T19:48:50.020Z,32.14
2024-01-18T19:51:20.339Z,32.14
2024-01-18T19:53:50.350Z,31.83
2024-01-18T19:56:20.791Z,31.75
2024-01-18T19:58:50.856Z,31.79
2024-01-18T20:01:21.356Z,31.84
2024-01-18T20:03:51.399Z,31.97
2024-01-18T20:06:21.767Z,32.10
2024-01-18T20:08:51.989Z,32.36
2024-01-18T20:11:22.372Z,32.69
2024-01-18T20:13:52.463Z,32.71
2024-01-18T20:16:22.766Z,32.87
2024-01-18T20:18:54.036Z,33.04
2024-01-18T20:21:24.413Z,32.46
2024-01-18T20:24:01.349Z,32.05
2024-01-18T20:26:31.847Z,32.28
2024-01-18T20:29:02.354Z,32.63
2024-01-18T20:31:33.149Z,33.16
2024-01-18T20:34:04.259Z,33.37
2024-01-18T20:36:34.698Z,34.18
2024-01-18T20:39:05.541Z,34.40
2024-01-18T20:41:36.094Z,34.40
2024-01-18T20:44:06.356Z,33.50
2024-01-18T20:46:41.983Z,32.71
2024-01-18T20:49:13.778Z,32.40
2024-01-18T20:51:48.188Z,31.77
2024-01-18T20:54:19.303Z,31.55
2024-01-18T20:56:50.392Z,31.63
2024-01-18T20:59:23.671Z,31.42
2024-01-18T21:01:57.691Z,31.13
2024-01-18T21:04:29.477Z,31.06
2024-01-18T21:06:59.888Z,31.37
2024-01-18T21:09:30.174Z,31.55
2024-01-18T21:12:00.735Z,31.68
2024-01-18T21:14:33.668Z,31.34
2024-01-18T21:17:06.784Z,31.42
2024-01-18T21:19:36.804Z,31.31
2024-01-18T21:22:06.757Z,31.39
2024-01-18T21:24:37.190Z,31.42
2024-01-18T21:27:07.090Z,31.24
2024-01-18T21:29:37.552Z,31.30
2024-01-18T21:32:07.757Z,30.65
2024-01-18T21:34:39.617Z,30.56
2024-01-18T21:37:09.682Z,30.77
2024-01-18T21:39:40.066Z,30.58
2024-01-18T21:42:10.274Z,30.66
2024-01-18T21:44:40.947Z,30.88
2024-01-18T21:47:11.614Z,30.66
2024-01-18T21:49:42.347Z,30.50
2024-01-18T21:52:13.700Z,30.41
2024-01-18T21:54:45.129Z,30.31
2024-01-18T21:57:16.182Z,30.24
2024-01-18T21:59:47.353Z,29.77
2024-01-18T22:02:17.950Z,29.39
2024-01-18T22:04:50.191Z,29.12
2024-01-18T22:07:20.258Z,28.84
2024-01-18T22:09:50.821Z,28.58
2024-01-18T22:12:21.047Z,28.54
2024-01-18T22:14:51.640Z,28.36
2024-01-18T22:17:22.285Z,28.19
2024-01-18T22:20:01.041Z,27.85
2024-01-18T22:22:34.867Z,27.81
2024-01-18T22:25:05.701Z,27.68
2024-01-18T22:27:35.658Z,27.51
2024-01-18T22:30:08.686Z,27.43
2024-01-18T22:32:38.688Z,27.35
2024-01-18T22:35:12.728Z,27.27
2024-01-18T22:37:43.411Z,27.25
2024-01-18T22:40:14.189Z,27.27
2024-01-18T22:42:45.228Z,27.26
2024-01-18T22:45:16.531Z,27.09
2024-01-18T22:47:46.479Z,27.13
2024-01-18T22:50:17.226Z,27.08
2024-01-18T22:52:47.285Z,26.98
2024-01-18T22:55:17.750Z,26.77
2024-01-18T22:57:47.584Z,26.66
2024-01-18T23:00:19.441Z,26.53
2024-01-18T23:02:49.870Z,26.43
2024-01-18T23:05:21.020Z,26.35
2024-01-18T23:07:54.176Z,26.24
2024-01-18T23:10:24.561Z,26.19
2024-01-18T23:12:54.643Z,26.02
2024-01-18T23:15:25.416Z,25.85
2024-01-18T23:17:55.865Z,25.71
2024-01-18T23:20:27.027Z,25.58
2024-01-18T23:22:59.904Z,25.50
2024-01-18T23:25:30.955Z,25.42
2024-01-18T23:28:01.519Z,25.36
2024-01-18T23:30:32.404Z,25.36
2024-01-18T23:33:02.613Z,25.34
2024-01-18T23:35:36.271Z,25.31
2024-01-18T23:38:09.323Z,25.30
2024-01-18T23:40:39.709Z,25.28
2024-01-18T23:43:09.872Z,25.27
2024-01-18T23:45:40.298Z,25.23
2024-01-18T23:48:10.764Z,25.16
2024-01-18T23:50:41.251Z,25.17
2024-01-18T23:53:13.870Z,25.15
2024-01-18T23:55:44.339Z,25.09
2024-01-18T23:58:14.282Z,25.02
